Time;durP1;ratioP1;P1;durP2;ratioP2;P2;SDS_P1;SDS_P2;PMS_P1;PMS_P2;Temp;Humidity;BMP_temperature;BMP_pressure;BME280_temperature;BME280_humidity;BME280_pressure;Samples;Min_cycle;Max_cycle;Signal;HPM_P1;HPM_P2
2023/04/20 00:01:36;;;;;;;1.80;1.60;;;;;;;9.54;100.00;97229.56;5115068;27;20087;-83
2023/04/20 00:04:02;;;;;;;3.08;1.90;;;;;;;9.59;100.00;97232.81;5098220;27;20482;-83
2023/04/20 00:06:29;;;;;;;1.88;1.35;;;;;;;9.53;100.00;97231.41;5098227;27;20498;-82
2023/04/20 00:08:54;;;;;;;2.13;1.42;;;;;;;9.55;100.00;97233.97;5098433;27;20070;-83
2023/04/20 00:11:20;;;;;;;1.33;1.15;;;;;;;9.56;100.00;97233.03;5133236;27;20019;-83
2023/04/20 00:13:45;;;;;;;1.77;0.75;;;;;;;9.50;100.00;97228.06;5098758;27;20474;-83
2023/04/20 00:16:11;;;;;;;2.92;2.05;;;;;;;9.46;100.00;97227.41;5099101;27;20510;-83
2023/04/20 00:18:36;;;;;;;2.83;1.75;;;;;;;9.43;100.00;97224.06;5099554;27;20054;-84
2023/04/20 00:21:02;;;;;;;1.92;1.63;;;;;;;9.44;100.00;97231.13;5098543;27;20113;-84
2023/04/20 00:23:28;;;;;;;3.92;2.28;;;;;;;9.43;100.00;97232.94;5115870;27;20478;-83
2023/04/20 00:25:54;;;;;;;2.50;1.67;;;;;;;9.36;100.00;97242.25;5097742;27;20034;-83
2023/04/20 00:28:19;;;;;;;1.80;1.55;;;;;;;9.34;100.00;97237.97;5097144;27;20133;-84
2023/04/20 00:30:45;;;;;;;1.98;1.42;;;;;;;9.30;100.00;97239.97;5097939;27;20039;-83
2023/04/20 00:33:10;;;;;;;2.25;1.85;;;;;;;9.30;100.00;97236.44;5097455;27;20031;-83
2023/04/20 00:35:36;;;;;;;2.00;1.45;;;;;;;9.26;100.00;97243.78;5097538;27;20111;-83
2023/04/20 00:38:01;;;;;;;2.97;2.00;;;;;;;9.12;100.00;97233.97;5114300;27;20035;-83
2023/04/20 00:40:27;;;;;;;1.67;1.40;;;;;;;9.04;100.00;97228.25;5114243;27;20516;-83
2023/04/20 00:42:52;;;;;;;1.27;1.10;;;;;;;8.97;100.00;97232.22;5097508;27;20482;-83
2023/04/20 00:45:18;;;;;;;2.03;1.15;;;;;;;8.85;100.00;97229.44;5097585;27;20027;-83
2023/04/20 00:47:43;;;;;;;1.10;0.90;;;;;;;8.81;100.00;97234.09;5114423;27;20027;-84
2023/04/20 00:50:10;;;;;;;6.95;2.70;;;;;;;8.71;100.00;97235.59;5086162;28;20050;-84
2023/04/20 00:52:35;;;;;;;2.13;1.77;;;;;;;8.59;100.00;97231.84;5086679;28;20089;-83
2023/04/20 00:55:02;;;;;;;4.57;1.45;;;;;;;8.59;100.00;97238.97;5085295;28;20023;-83
2023/04/20 00:57:28;;;;;;;1.73;0.95;;;;;;;8.59;100.00;97245.19;5077179;28;20077;-83
2023/04/20 00:59:53;;;;;;;1.30;1.20;;;;;;;8.56;100.00;97241.84;5077558;28;20390;-84
2023/04/20 01:02:19;;;;;;;2.50;2.05;;;;;;;8.54;100.00;97254.41;5103605;27;20149;-83
2023/04/20 01:04:45;;;;;;;1.40;1.15;;;;;;;8.52;100.00;97251.81;5097371;27;20023;-83
2023/04/20 01:07:11;;;;;;;6.68;1.63;;;;;;;8.60;100.00;97260.25;5104498;27;20092;-83
2023/04/20 01:09:41;;;;;;;1.85;1.63;;;;;;;8.64;100.00;97259.09;5078140;28;20506;-84
2023/04/20 01:12:08;;;;;;;24.58;3.05;;;;;;;8.62;100.00;97262.78;5094130;28;20023;-83
2023/04/20 01:14:34;;;;;;;1.83;1.67;;;;;;;8.63;100.00;97261.84;5106224;27;20454;-83
2023/04/20 01:16:59;;;;;;;1.00;0.98;;;;;;;8.43;100.00;97243.53;5096781;27;20023;-83
2023/04/20 01:19:25;;;;;;;4.05;1.67;;;;;;;8.53;100.00;97255.34;5112546;27;20035;-83
2023/04/20 01:21:51;;;;;;;1.15;1.08;;;;;;;8.59;100.00;97265.66;5096998;27;20402;-84
2023/04/20 01:24:17;;;;;;;0.70;0.70;;;;;;;8.65;100.00;97266.16;5097507;27;20031;-83
2023/04/20 01:26:42;;;;;;;1.77;1.48;;;;;;;8.58;100.00;97253.28;5114345;27;20035;-84
2023/04/20 01:29:08;;;;;;;2.83;2.60;;;;;;;8.62;100.00;97257.47;5096123;27;20042;-84
2023/04/20 01:31:33;;;;;;;2.08;1.52;;;;;;;8.58;100.00;97256.78;5090061;27;20038;-84
2023/04/20 01:33:59;;;;;;;3.25;1.23;;;;;;;8.59;100.00;97258.50;5097802;27;20051;-84
2023/04/20 01:36:24;;;;;;;1.02;1.00;;;;;;;8.63;100.00;97267.19;5085692;28;20027;-84
2023/04/20 01:38:50;;;;;;;2.95;1.17;;;;;;;8.60;100.00;97254.91;5089248;27;20113;-84
2023/04/20 01:41:15;;;;;;;2.35;1.33;;;;;;;8.67;100.00;97258.91;5097166;28;20429;-84
2023/04/20 01:43:41;;;;;;;1.45;1.13;;;;;;;8.69;100.00;97256.16;5088026;28;20015;-85
2023/04/20 01:46:07;;;;;;;2.92;1.52;;;;;;;8.65;100.00;97249.28;5097969;28;20106;-85
2023/04/20 01:48:32;;;;;;;41.63;3.42;;;;;;;8.56;100.00;97242.69;5106182;28;20574;-84
2023/04/20 01:50:58;;;;;;;1.95;1.55;;;;;;;8.54;100.00;97247.25;5097669;27;20145;-84
2023/04/20 01:53:24;;;;;;;0.80;0.80;;;;;;;8.47;100.00;97239.72;5096375;28;20023;-82
2023/04/20 01:55:50;;;;;;;1.42;1.13;;;;;;;8.42;100.00;97241.78;5077091;28;20046;-82
2023/04/20 01:58:16;;;;;;;3.72;1.70;;;;;;;8.42;100.00;97241.78;5092977;28;20031;-84
2023/04/20 02:00:41;;;;;;;1.63;1.30;;;;;;;8.37;100.00;97246.50;5087539;28;20024;-84
2023/04/20 02:03:07;;;;;;;4.18;1.65;;;;;;;8.40;100.00;97246.38;5081334;28;20483;-84
2023/04/20 02:05:33;;;;;;;0.80;0.80;;;;;;;8.43;100.00;97243.53;5084587;28;20039;-83
2023/04/20 02:07:59;;;;;;;0.40;0.40;;;;;;;8.42;100.00;97244.47;5081894;28;20095;-84
2023/04/20 02:10:24;;;;;;;1.60;1.48;;;;;;;8.41;100.00;97240.94;5104739;28;20126;-84
2023/04/20 02:12:50;;;;;;;0.68;0.68;;;;;;;8.33;100.00;97239.66;5076857;28;20084;-85
2023/04/20 02:15:15;;;;;;;5.50;2.10;;;;;;;8.29;100.00;97246.09;5084413;28;20019;-84
2023/04/20 02:17:42;;;;;;;3.25;1.83;;;;;;;8.19;100.00;97245.75;5085276;28;20396;-84
2023/04/20 02:20:09;;;;;;;1.55;1.23;;;;;;;8.21;100.00;97249.19;5099928;28;20015;-84
2023/04/20 02:22:35;;;;;;;1.27;1.17;;;;;;;8.19;100.00;97246.59;5077568;28;20024;-83
2023/04/20 02:25:01;;;;;;;4.03;1.77;;;;;;;8.20;100.00;97252.78;5076166;28;20382;-83
2023/04/20 02:27:27;;;;;;;2.03;1.45;;;;;;;8.10;100.00;97257.78;5093125;28;20562;-84
2023/04/20 02:29:53;;;;;;;1.45;1.17;;;;;;;8.09;100.00;97249.91;5096483;28;20118;-85
2023/04/20 02:32:18;;;;;;;6.22;2.35;;;;;;;8.12;100.00;97261.22;5080145;28;20020;-84
2023/04/20 02:34:43;;;;;;;3.13;1.92;;;;;;;8.10;100.00;97262.25;5081404;28;20077;-84
2023/04/20 02:37:09;;;;;;;4.53;1.95;;;;;;;8.15;100.00;97271.69;5096133;28;20019;-84
2023/04/20 02:39:35;;;;;;;1.38;1.27;;;;;;;8.10;100.00;97270.25;5094900;28;20099;-84
2023/04/20 02:42:00;;;;;;;8.50;1.70;;;;;;;8.12;100.00;97261.22;5095085;28;20119;-84
2023/04/20 02:44:26;;;;;;;2.20;1.63;;;;;;;8.23;100.00;97281.94;5113185;28;20031;-85
2023/04/20 02:46:51;;;;;;;2.28;1.75;;;;;;;8.19;100.00;97273.25;5104051;28;20059;-84
2023/04/20 02:49:17;;;;;;;4.93;2.92;;;;;;;8.21;100.00;97274.97;5083154;28;20050;-84
2023/04/20 02:51:42;;;;;;;0.68;0.68;;;;;;;8.28;100.00;97273.69;5114592;27;20524;-84
2023/04/20 02:54:08;;;;;;;1.73;1.63;;;;;;;8.23;100.00;97260.63;5117036;27;20106;-85
2023/04/20 02:56:33;;;;;;;1.33;1.30;;;;;;;8.30;100.00;97263.81;5116852;27;20542;-84
2023/04/20 02:58:59;;;;;;;1.77;1.67;;;;;;;8.28;100.00;97265.69;5099916;27;20027;-85
2023/04/20 03:01:25;;;;;;;1.60;0.85;;;;;;;8.24;100.00;97261.47;5099933;27;20042;-84
2023/04/20 03:03:50;;;;;;;4.28;2.58;;;;;;;8.28;100.00;97266.56;5116476;27;20027;-84
2023/04/20 03:06:16;;;;;;;3.85;2.85;;;;;;;8.26;100.00;97263.09;5099641;27;20027;-84
2023/04/20 03:08:42;;;;;;;5.22;2.47;;;;;;;8.29;100.00;97262.09;5099679;27;20038;-83
2023/04/20 03:11:07;;;;;;;9.48;2.70;;;;;;;8.29;100.00;97257.63;5099526;27;20058;-83
2023/04/20 03:13:33;;;;;;;1.50;1.40;;;;;;;8.19;100.00;97262.59;5099498;27;20035;-84
2023/04/20 03:15:59;;;;;;;4.57;3.53;;;;;;;8.24;100.00;97269.47;5099357;27;20023;-84
2023/04/20 03:18:24;;;;;;;5.57;4.13;;;;;;;8.22;100.00;97272.22;5099417;27;20055;-84
2023/04/20 03:20:50;;;;;;;3.35;2.72;;;;;;;8.23;100.00;97271.28;5099337;27;20034;-84
2023/04/20 03:23:16;;;;;;;3.13;2.08;;;;;;;8.25;100.00;97272.03;5099200;27;20027;-83
2023/04/20 03:25:42;;;;;;;5.53;2.88;;;;;;;8.28;100.00;97271.88;5099361;27;20406;-83
2023/04/20 03:28:07;;;;;;;2.40;1.83;;;;;;;8.22;100.00;97282.00;5099058;27;20034;-83
2023/04/20 03:30:33;;;;;;;3.63;2.35;;;;;;;8.27;100.00;97283.47;5099215;27;20023;-84
2023/04/20 03:32:58;;;;;;;2.45;1.70;;;;;;;8.17;100.00;97274.28;5099536;27;20031;-85
2023/04/20 03:35:24;;;;;;;1.48;1.38;;;;;;;8.19;100.00;97278.56;5099317;27;20031;-85
2023/04/20 03:37:49;;;;;;;2.88;2.17;;;;;;;8.24;100.00;97275.66;5134792;27;20057;-85
2023/04/20 03:40:15;;;;;;;5.25;2.10;;;;;;;8.15;100.00;97277.03;5098758;27;20019;-84
2023/04/20 03:42:40;;;;;;;4.75;2.00;;;;;;;8.04;100.00;97268.78;5099342;27;20438;-85
2023/04/20 03:45:06;;;;;;;1.75;1.58;;;;;;;8.03;100.00;97263.53;5098656;27;20478;-87
2023/04/20 03:47:32;;;;;;;2.70;1.52;;;;;;;7.92;100.00;97264.16;5099166;27;20023;-85
2023/04/20 03:49:58;;;;;;;1.38;0.70;;;;;;;7.85;100.00;97262.78;5089249;28;20048;-84
2023/04/20 03:52:23;;;;;;;2.42;1.55;;;;;;;7.81;100.00;97261.25;5095587;28;20020;-84
2023/04/20 03:54:49;;;;;;;1.42;1.33;;;;;;;7.77;100.00;97253.50;5095534;28;20098;-84
2023/04/20 03:57:14;;;;;;;1.20;1.17;;;;;;;7.83;100.00;97264.66;5078221;28;20125;-84
2023/04/20 03:59:40;;;;;;;2.75;1.25;;;;;;;7.93;100.00;97279.19;5095982;28;20032;-84
2023/04/20 04:02:06;;;;;;;0.95;0.90;;;;;;;7.90;100.00;97273.19;5078149;28;20027;-83
2023/04/20 04:04:31;;;;;;;1.52;1.20;;;;;;;7.92;100.00;97279.25;5078864;28;20031;-85
2023/04/20 04:07:16;;;;;;;2.20;1.70;;;;;;;8.06;100.00;97290.00;5079070;28;20032;-85
2023/04/20 04:09:41;;;;;;;1.52;1.33;;;;;;;8.08;100.00;97290.78;5087353;28;20399;-82
2023/04/20 04:12:07;;;;;;;3.40;2.30;;;;;;;8.10;100.00;97288.88;5078317;28;20034;-86
2023/04/20 04:14:34;;;;;;;1.10;1.08;;;;;;;8.00;100.00;97282.34;5095662;28;20027;-83
2023/04/20 04:16:59;;;;;;;9.27;1.90;;;;;;;8.07;100.00;97294.38;5076320;28;20110;-83
2023/04/20 04:19:25;;;;;;;2.13;1.55;;;;;;;8.23;100.00;97307.69;5092150;28;20118;-84
2023/04/20 04:21:50;;;;;;;4.97;2.25;;;;;;;8.18;100.00;97300.81;5074489;27;20023;-85
2023/04/20 04:24:16;;;;;;;4.50;2.13;;;;;;;8.15;100.00;97308.97;5095501;28;20023;-84
2023/04/20 04:26:44;;;;;;;0.50;0.50;;;;;;;8.17;100.00;97306.25;5076641;28;20019;-84
2023/04/20 04:29:13;;;;;;;1.05;1.02;;;;;;;8.30;100.00;97314.44;5078953;28;20027;-86
2023/04/20 04:31:38;;;;;;;1.98;1.35;;;;;;;8.33;100.00;97316.94;5077193;28;20040;-85
2023/04/20 04:34:04;;;;;;;1.38;1.05;;;;;;;8.36;100.00;97303.44;5078520;28;20031;-83
2023/04/20 04:36:31;;;;;;;1.70;1.58;;;;;;;8.43;100.00;97302.97;5077366;28;20031;-83
2023/04/20 04:38:56;;;;;;;1.15;1.13;;;;;;;8.49;100.00;97304.47;5077328;28;20422;-84
2023/04/20 04:41:22;;;;;;;3.35;1.90;;;;;;;8.56;100.00;97304.00;5094250;28;20035;-83
2023/04/20 04:43:47;;;;;;;4.18;1.65;;;;;;;8.63;100.00;97307.19;5093607;28;20016;-83
2023/04/20 04:46:13;;;;;;;24.70;4.22;;;;;;;8.69;100.00;97320.16;5077222;28;20027;-84
2023/04/20 04:48:41;;;;;;;1.77;1.65;;;;;;;8.64;100.00;97303.56;5076469;28;20343;-83
2023/04/20 04:51:09;;;;;;;1.58;1.40;;;;;;;8.69;100.00;97304.16;5093397;28;20047;-83
2023/04/20 04:53:35;;;;;;;2.75;2.38;;;;;;;8.75;100.00;97297.59;5076671;28;20036;-82
2023/04/20 04:56:01;;;;;;;3.70;3.05;;;;;;;8.71;100.00;97294.25;5093949;28;20031;-84
2023/04/20 04:58:27;;;;;;;5.60;1.83;;;;;;;8.78;100.00;97298.28;5076662;28;20035;-82
2023/04/20 05:00:52;;;;;;;3.30;2.70;;;;;;;8.90;100.00;97304.69;5076622;28;20027;-83
2023/04/20 05:03:17;;;;;;;3.22;2.55;;;;;;;8.95;100.00;97298.13;5076614;28;20034;-84
2023/04/20 05:05:43;;;;;;;5.25;2.20;;;;;;;9.04;100.00;97297.63;5074942;28;20095;-84
2023/04/20 05:08:08;;;;;;;1.40;1.30;;;;;;;9.21;100.00;97293.91;5090370;28;20479;-83
2023/04/20 05:10:34;;;;;;;5.63;2.90;;;;;;;9.38;100.00;97298.22;5091052;28;20085;-83
2023/04/20 05:13:00;;;;;;;4.53;2.75;;;;;;;9.60;100.00;97282.59;5076458;28;20067;-84
2023/04/20 05:15:26;;;;;;;4.20;3.17;;;;;;;9.80;100.00;97279.53;5092681;28;20039;-84
2023/04/20 05:17:51;;;;;;;4.90;3.28;;;;;;;9.90;100.00;97264.66;5073692;28;20028;-84
2023/04/20 05:20:17;;;;;;;6.18;3.90;;;;;;;10.02;100.00;97255.84;5076485;28;20038;-84
2023/04/20 05:22:43;;;;;;;4.68;3.50;;;;;;;10.01;100.00;97254.13;5076353;28;20038;-84
2023/04/20 05:25:10;;;;;;;4.60;3.20;;;;;;;10.06;100.00;97256.50;5076512;28;20038;-83
2023/04/20 05:27:35;;;;;;;6.75;3.53;;;;;;;10.09;100.00;97246.47;5076513;28;20032;-84
2023/04/20 05:30:01;;;;;;;8.85;4.68;;;;;;;10.03;100.00;97238.00;5073489;28;20529;-83
2023/04/20 05:32:27;;;;;;;3.25;2.95;;;;;;;10.11;100.00;97235.69;5076515;28;20031;-85
2023/04/20 05:34:52;;;;;;;6.95;3.88;;;;;;;10.17;100.00;97230.84;5083840;28;20050;-84
2023/04/20 05:37:18;;;;;;;5.40;4.75;;;;;;;10.15;100.00;97230.06;5075384;28;20038;-84
2023/04/20 05:39:43;;;;;;;3.38;2.78;;;;;;;10.37;100.00;97226.00;5073780;28;20178;-84
2023/04/20 05:42:09;;;;;;;1.67;1.58;;;;;;;10.41;100.00;97214.13;5076377;28;20023;-84
2023/04/20 05:44:38;;;;;;;4.93;3.95;;;;;;;10.72;100.00;97217.31;5090544;28;20036;-84
2023/04/20 05:47:05;;;;;;;5.75;3.72;;;;;;;11.12;100.00;97210.09;5073902;28;20118;-86
2023/04/20 05:49:31;;;;;;;7.03;4.35;;;;;;;11.26;100.00;97196.56;5083650;28;20051;-84
2023/04/20 05:51:57;;;;;;;5.90;3.67;;;;;;;11.30;100.00;97192.72;5095891;28;20416;-84
2023/04/20 05:54:23;;;;;;;5.18;4.65;;;;;;;11.61;100.00;97182.50;5093296;28;20066;-84
2023/04/20 05:56:48;;;;;;;9.20;4.43;;;;;;;11.56;100.00;97171.28;5090233;28;20109;-85
2023/04/20 05:59:15;;;;;;;6.75;5.18;;;;;;;11.88;100.00;97169.81;5096106;27;20927;-85
2023/04/20 06:01:40;;;;;;;6.25;3.97;;;;;;;11.78;100.00;97160.75;5104811;28;20498;-86
2023/04/20 06:04:06;;;;;;;7.07;5.00;;;;;;;11.41;100.00;97163.34;5087422;28;20034;-85
2023/04/20 06:06:31;;;;;;;9.10;4.28;;;;;;;11.54;100.00;97167.84;5087627;28;20476;-83
2023/04/20 06:08:58;;;;;;;9.85;4.95;;;;;;;11.51;100.00;97157.34;5100723;28;20390;-84
2023/04/20 06:11:23;;;;;;;11.85;4.15;;;;;;;11.21;100.00;97150.53;5083957;28;20030;-82
2023/04/20 06:13:49;;;;;;;19.08;4.47;;;;;;;11.22;100.00;97149.59;5077432;28;20031;-83
2023/04/20 06:16:15;;;;;;;7.57;3.30;;;;;;;11.30;100.00;97151.72;5084567;28;20020;-83
2023/04/20 06:18:40;;;;;;;6.18;4.43;;;;;;;11.07;100.00;97139.09;5108854;28;20027;-83
2023/04/20 06:21:08;;;;;;;4.97;2.80;;;;;;;10.98;100.00;97132.59;5086284;28;20023;-84
2023/04/20 06:23:36;;;;;;;5.07;3.05;;;;;;;11.22;100.00;97133.53;5083245;28;20019;-83
2023/04/20 06:26:02;;;;;;;2.35;2.15;;;;;;;11.63;100.00;97143.09;5076231;28;20085;-83
2023/04/20 06:28:27;;;;;;;2.17;1.95;;;;;;;11.88;100.00;97127.81;5089815;28;20023;-83
2023/04/20 06:30:53;;;;;;;3.42;2.08;;;;;;;12.15;100.00;97114.16;5102484;28;20128;-84
2023/04/20 06:33:19;;;;;;;2.30;2.00;;;;;;;12.40;100.00;97116.69;5089146;27;20028;-81
2023/04/20 06:35:44;;;;;;;3.95;2.60;;;;;;;12.43;100.00;97108.41;5081533;28;20482;-80
2023/04/20 06:38:10;;;;;;;2.95;2.65;;;;;;;12.40;100.00;97111.34;5090154;28;20023;-84
2023/04/20 06:40:35;;;;;;;4.10;2.47;;;;;;;12.11;100.00;97099.28;5088318;28;20024;-83
2023/04/20 06:43:01;;;;;;;4.32;2.83;;;;;;;12.15;100.00;97121.38;5105028;28;20397;-81
2023/04/20 06:45:26;;;;;;;3.17;2.28;;;;;;;12.23;100.00;97109.09;5081325;28;20068;-83
2023/04/20 06:47:52;;;;;;;5.55;3.72;;;;;;;12.05;100.00;97105.13;5099277;28;20058;-80
2023/04/20 06:50:17;;;;;;;4.30;2.88;;;;;;;12.07;100.00;97097.81;5081459;28;20051;-82
2023/04/20 06:52:44;;;;;;;2.65;1.77;;;;;;;12.18;100.00;97119.28;5079616;28;20032;-82
2023/04/20 06:55:09;;;;;;;9.55;4.20;;;;;;;12.15;100.00;97114.16;5079407;28;20066;-79
2023/04/20 06:57:37;;;;;;;25.38;2.95;;;;;;;12.29;100.00;97100.59;5078994;28;20054;-79
2023/04/20 07:00:05;;;;;;;4.78;1.85;;;;;;;12.48;100.00;97094.66;5096960;28;20072;-82
2023/04/20 07:02:50;;;;;;;7.13;4.15;;;;;;;12.74;100.00;97103.38;5079420;28;20106;-83
2023/04/20 07:05:16;;;;;;;6.25;3.10;;;;;;;12.76;100.00;97098.75;5096385;28;20023;-82
2023/04/20 07:07:42;;;;;;;8.82;4.43;;;;;;;13.05;100.00;97100.00;5079440;28;20032;-82
2023/04/20 07:10:10;;;;;;;6.32;3.03;;;;;;;13.29;100.00;97092.72;5079242;28;20144;-83
2023/04/20 07:12:36;;;;;;;7.38;4.45;;;;;;;13.43;100.00;97089.78;5079561;28;20043;-80
2023/04/20 07:15:03;;;;;;;13.55;3.95;;;;;;;13.57;100.00;97096.72;5079434;28;20024;-82
2023/04/20 07:17:28;;;;;;;3.60;2.83;;;;;;;13.53;100.00;97088.03;5079341;28;20038;-82
2023/04/20 07:19:55;;;;;;;8.63;2.72;;;;;;;13.37;100.00;97086.72;5079745;28;20021;-82
2023/04/20 07:22:21;;;;;;;4.85;2.85;;;;;;;13.20;100.00;97076.47;5079201;28;20031;-83
2023/04/20 07:24:46;;;;;;;4.22;2.47;;;;;;;13.05;100.00;97086.56;5095500;28;20398;-82
2023/04/20 07:27:12;;;;;;;4.22;3.03;;;;;;;13.14;100.00;97090.38;5079539;28;20106;-82
2023/04/20 07:29:37;;;;;;;1.08;1.02;;;;;;;13.38;100.00;97093.81;5079039;28;20047;-82
2023/04/20 07:32:03;;;;;;;1.80;1.67;;;;;;;13.27;100.00;97093.81;5079112;28;20102;-81
2023/04/20 07:34:29;;;;;;;3.22;1.17;;;;;;;13.49;100.00;97086.59;5078256;28;20067;-81
2023/04/20 07:36:55;;;;;;;3.97;1.70;;;;;;;13.77;100.00;97074.44;5078771;28;20031;-82
2023/04/20 07:39:20;;;;;;;3.38;2.22;;;;;;;14.06;100.00;97070.19;5076483;28;20039;-83
2023/04/20 07:41:46;;;;;;;2.08;1.38;;;;;;;14.29;100.00;97073.66;5095493;28;20107;-81
2023/04/20 07:44:14;;;;;;;8.15;3.90;;;;;;;14.49;100.00;97077.34;5078015;28;20429;-79
2023/04/20 07:46:40;;;;;;;2.05;1.63;;;;;;;14.82;100.00;97070.94;5094927;28;20107;-81
2023/04/20 07:49:06;;;;;;;3.42;1.58;;;;;;;14.71;100.00;97061.06;5080785;27;20086;-79
2023/04/20 07:51:33;;;;;;;2.92;2.53;;;;;;;14.87;100.00;97056.06;5097926;27;20469;-80
2023/04/20 07:53:59;;;;;;;1.30;1.20;;;;;;;14.96;100.00;97054.41;5097908;27;20023;-81
2023/04/20 07:56:24;;;;;;;18.33;6.82;;;;;;;14.65;100.00;97062.47;5115325;27;20024;-81
2023/04/20 07:58:53;;;;;;;5.85;3.33;;;;;;;14.48;100.00;97052.31;5098378;27;20023;-83
2023/04/20 08:01:23;;;;;;;1.55;1.45;;;;;;;14.41;100.00;97034.97;5098621;27;20058;-83
2023/04/20 08:03:49;;;;;;;1.25;1.00;;;;;;;14.56;100.00;97041.72;5098699;27;20015;-83
2023/04/20 08:06:14;;;;;;;2.75;1.23;;;;;;;15.16;100.00;97043.59;5098227;27;20030;-83
2023/04/20 08:08:40;;;;;;;1.38;0.93;;;;;;;15.49;100.00;97023.63;5114838;27;20023;-84
2023/04/20 08:11:07;;;;;;;1.40;1.02;;;;;;;15.55;100.00;97020.38;5098287;27;20027;-83
2023/04/20 08:13:32;;;;;;;1.45;1.00;;;;;;;15.82;100.00;96997.25;5098032;27;20050;-83
2023/04/20 08:15:58;;;;;;;1.50;0.98;;;;;;;16.11;100.00;97007.09;5114836;27;20451;-83
2023/04/20 08:18:23;;;;;;;6.43;2.67;;;;;;;16.37;100.00;96996.53;5097898;27;20409;-83
2023/04/20 08:20:50;;;;;;;2.70;1.70;;;;;;;16.58;100.00;96999.94;5114678;27;20023;-83
2023/04/20 08:23:15;;;;;;;3.13;1.25;;;;;;;16.94;99.88;96987.47;5098280;27;20023;-83
2023/04/20 08:25:41;;;;;;;1.60;1.35;;;;;;;17.37;97.29;96992.25;5098057;27;20737;-83
2023/04/20 08:28:07;;;;;;;2.00;1.55;;;;;;;18.16;92.91;96978.91;5114909;27;20099;-83
2023/04/20 08:30:32;;;;;;;2.47;1.65;;;;;;;19.63;78.94;96971.53;5114446;27;20466;-83
2023/04/20 08:32:58;;;;;;;6.57;0.93;;;;;;;20.56;66.77;96949.44;5090799;27;20443;-82
2023/04/20 08:35:24;;;;;;;0.65;0.60;;;;;;;21.10;59.36;96934.25;5097802;27;20057;-83
2023/04/20 08:37:49;;;;;;;0.65;0.60;;;;;;;22.86;54.67;96933.25;5097587;27;20027;-84
2023/04/20 08:40:16;;;;;;;0.90;0.50;;;;;;;25.29;48.50;96933.19;5115301;27;20064;-84
2023/04/20 08:42:42;;;;;;;0.82;0.77;;;;;;;26.60;44.23;96894.44;5097467;27;20494;-84
2023/04/20 08:45:07;;;;;;;0.60;0.60;;;;;;;27.33;40.11;96828.22;5097678;27;20034;-83
2023/04/20 08:47:34;;;;;;;0.85;0.65;;;;;;;27.78;38.78;96814.50;5097430;27;20482;-84
2023/04/20 08:50:02;;;;;;;0.98;0.63;;;;;;;26.04;39.40;96754.09;5109158;28;20514;-83
2023/04/20 08:52:28;;;;;;;0.77;0.70;;;;;;;27.96;36.94;96804.41;5104175;28;20028;-83
2023/04/20 08:54:53;;;;;;;0.40;0.40;;;;;;;28.94;33.61;96739.44;5085671;28;20080;-84
2023/04/20 08:57:20;;;;;;;3.20;1.75;;;;;;;29.05;34.71;96773.63;5085957;28;20039;-84
2023/04/20 08:59:46;;;;;;;0.38;0.38;;;;;;;30.55;31.19;96725.59;5082856;28;20097;-85
2023/04/20 09:02:12;;;;;;;1.13;0.90;;;;;;;30.38;30.99;96708.91;5086668;27;20092;-84
2023/04/20 09:04:39;;;;;;;1.55;0.77;;;;;;;30.45;30.75;96805.47;5082526;28;20027;-84
2023/04/20 09:07:05;;;;;;;0.68;0.68;;;;;;;30.60;30.84;96839.81;5088305;28;20493;-83
2023/04/20 09:09:31;;;;;;;3.83;0.55;;;;;;;30.79;30.57;96843.31;5089413;28;20110;-85
2023/04/20 09:12:02;;;;;;;0.80;0.80;;;;;;;30.73;31.37;96855.31;5100515;28;20023;-85
2023/04/20 09:14:28;;;;;;;0.90;0.60;;;;;;;28.94;33.00;96838.59;5089118;28;20036;-85
2023/04/20 09:16:59;;;;;;;0.68;0.68;;;;;;;29.28;33.83;96864.75;5085413;28;20019;-85
2023/04/20 09:19:26;;;;;;;2.97;1.63;;;;;;;30.28;33.18;96865.13;5080498;28;20442;-85
2023/04/20 09:21:53;;;;;;;3.55;1.15;;;;;;;29.49;32.16;96835.88;5078190;28;20277;-85
2023/04/20 09:24:23;;;;;;;0.68;0.47;;;;;;;26.44;35.26;96794.19;5086421;28;20519;-84
2023/04/20 09:26:52;;;;;;;1.92;0.60;;;;;;;27.45;34.63;96826.50;5086574;28;20047;-84
2023/04/20 09:29:22;;;;;;;0.50;0.50;;;;;;;27.74;35.63;96840.75;5112978;27;20436;-84
2023/04/20 09:31:48;;;;;;;1.52;1.23;;;;;;;27.66;34.37;96813.50;5099177;28;20443;-84
2023/04/20 09:34:14;;;;;;;31.98;2.42;;;;;;;26.31;36.53;96818.88;5086336;28;20039;-85
2023/04/20 09:36:45;;;;;;;0.88;0.88;;;;;;;28.89;33.22;96856.84;5081957;28;20034;-85
2023/04/20 09:39:19;;;;;;;1.20;0.83;;;;;;;30.57;32.53;96851.34;5078279;28;20019;-85
2023/04/20 09:41:44;;;;;;;2.90;1.52;;;;;;;30.41;32.03;96838.22;5087926;28;20556;-85
2023/04/20 09:44:11;;;;;;;0.98;0.93;;;;;;;29.73;33.35;96828.56;5079663;28;20015;-85
2023/04/20 09:46:38;;;;;;;0.60;0.60;;;;;;;29.23;32.36;96816.84;5088006;28;20472;-86
2023/04/20 09:49:05;;;;;;;0.52;0.52;;;;;;;29.31;32.46;96808.34;5101455;27;20073;-85
2023/04/20 09:51:34;;;;;;;1.40;1.02;;;;;;;30.61;32.44;96849.75;5087230;28;20042;-86
2023/04/20 09:54:00;;;;;;;0.32;0.32;;;;;;;31.10;31.50;96842.97;5085082;28;20035;-85
2023/04/20 09:56:27;;;;;;;0.85;0.82;;;;;;;31.62;30.24;96843.84;5109365;28;20038;-84
2023/04/20 09:58:56;;;;;;;1.80;0.52;;;;;;;31.16;30.67;96817.13;5105421;28;20019;-84
2023/04/20 10:01:35;;;;;;;0.22;0.22;;;;;;;30.43;30.43;96804.84;5097624;27;20035;-85
2023/04/20 10:04:02;;;;;;;0.50;0.50;;;;;;;29.63;31.41;96782.22;5093777;27;20023;-86
2023/04/20 10:09:21;;;;;;;2.90;1.45;;;;;;;30.35;31.55;96806.00;5101671;27;20108;-86
2023/04/20 10:12:05;;;;;;;0.68;0.68;;;;;;;30.18;30.84;96780.16;5076223;28;20023;-86
2023/04/20 10:14:31;;;;;;;0.35;0.35;;;;;;;29.66;31.43;96775.41;5108774;28;20100;-86
2023/04/20 10:17:04;;;;;;;0.60;0.60;;;;;;;30.58;31.76;96797.78;5114420;27;20034;-87
2023/04/20 10:19:55;;;;;;;2.17;1.08;;;;;;;30.42;31.43;96781.94;5100223;28;20031;-85
2023/04/20 10:22:44;;;;;;;5.32;1.08;;;;;;;28.42;33.07;96753.75;5087688;27;20032;-86
2023/04/20 10:25:23;;;;;;;3.60;1.88;;;;;;;28.46;33.47;96757.69;5081849;28;20031;-85
2023/04/20 10:28:03;;;;;;;5.47;4.18;;;;;;;26.81;34.58;96718.56;5097228;28;20036;-85
2023/04/20 10:30:29;;;;;;;6.68;4.05;;;;;;;25.19;37.30;96749.31;5107973;27;20463;-86
2023/04/20 10:33:11;;;;;;;5.93;3.97;;;;;;;25.59;36.84;96753.00;5091825;28;20037;-86
2023/04/20 10:35:54;;;;;;;4.63;3.80;;;;;;;24.99;37.84;96742.91;5077329;27;20027;-85
2023/04/20 10:38:39;;;;;;;5.05;4.40;;;;;;;24.44;39.71;96754.78;5093833;27;20027;-84
2023/04/20 10:41:07;;;;;;;13.68;4.93;;;;;;;23.67;42.40;96766.56;5096135;27;20015;-86
2023/04/20 10:43:40;;;;;;;7.22;4.38;;;;;;;23.22;43.91;96770.44;5101796;28;20045;-82
2023/04/20 10:46:20;;;;;;;11.02;4.72;;;;;;;22.87;44.71;96793.09;5102158;28;20023;-86
2023/04/20 10:49:00;;;;;;;8.20;4.50;;;;;;;21.84;45.24;96778.47;5091020;27;20027;-85
2023/04/20 10:51:25;;;;;;;7.47;4.60;;;;;;;21.23;49.20;96790.34;5104113;28;20093;-87
2023/04/20 10:54:10;;;;;;;7.72;4.47;;;;;;;20.43;52.64;96814.13;5101986;28;20023;-86
2023/04/20 10:56:46;;;;;;;4.80;3.92;;;;;;;20.63;53.17;96828.16;5082679;28;20042;-79
2023/04/20 10:59:23;;;;;;;13.88;5.47;;;;;;;20.75;53.34;96834.91;5097829;28;20023;-77
2023/04/20 11:01:50;;;;;;;8.95;4.78;;;;;;;21.05;53.25;96841.41;5097254;28;20081;-78
2023/04/20 11:04:16;;;;;;;5.28;4.00;;;;;;;21.62;50.53;96844.69;5097756;28;20027;-79
2023/04/20 11:06:46;;;;;;;7.93;4.20;;;;;;;22.44;48.93;96862.94;5085569;28;20106;-79
2023/04/20 11:09:32;;;;;;;6.18;3.65;;;;;;;23.69;44.10;96851.00;5080226;28;20406;-77
2023/04/20 11:12:03;;;;;;;6.32;3.60;;;;;;;24.34;42.68;96860.91;5096858;28;20027;-82
2023/04/20 11:15:03;;;;;;;8.48;3.83;;;;;;;24.18;42.50;96842.91;5080184;28;20380;-78
2023/04/20 11:17:36;;;;;;;4.45;3.42;;;;;;;24.17;41.30;96827.56;5074039;28;20035;-75
2023/04/20 11:20:13;;;;;;;8.18;4.18;;;;;;;24.00;41.79;96826.09;5079126;28;20434;-77
2023/04/20 11:23:05;;;;;;;3.80;3.22;;;;;;;23.75;41.63;96820.19;5078749;28;20055;-77
2023/04/20 11:25:41;;;;;;;;;;;;;;;23.44;42.15;96816.94;5080168;28;20028;-76
2023/04/20 11:28:15;;;;;;;6.15;3.58;;;;;;;23.42;42.96;96803.47;5079864;28;19915;-76
2023/04/20 11:30:44;;;;;;;6.38;3.42;;;;;;;23.84;42.85;96834.59;5078692;27;20043;-77
2023/04/20 11:33:16;;;;;;;4.60;3.38;;;;;;;25.19;40.37;96843.25;5095583;28;20077;-78
2023/04/20 11:35:45;;;;;;;3.97;3.20;;;;;;;27.92;35.79;96843.59;5095420;28;20055;-77